createdAt,value
2022-10-13T00:02:24.183Z,3.67
2022-10-13T00:04:51.248Z,3.22
2022-10-13T00:07:18.429Z,3.38
2022-10-13T00:09:45.533Z,3.05
2022-10-13T00:12:12.619Z,3.30
2022-10-13T00:14:39.797Z,3.65
2022-10-13T00:17:07.036Z,3.70
2022-10-13T00:19:34.132Z,3.47
2022-10-13T00:22:01.263Z,3.50
2022-10-13T00:24:28.345Z,4.10
2022-10-13T00:26:55.541Z,4.10
2022-10-13T00:29:22.632Z,3.70
2022-10-13T00:31:49.745Z,3.60
2022-10-13T00:34:16.826Z,3.25
2022-10-13T00:36:43.968Z,3.28
2022-10-13T00:39:11.127Z,3.40
2022-10-13T00:41:38.207Z,3.17
2022-10-13T00:44:28.304Z,3.13
2022-10-13T00:46:55.555Z,3.38
2022-10-13T00:49:22.648Z,3.53
2022-10-13T00:51:50.144Z,3.30
2022-10-13T00:54:24.711Z,3.30
2022-10-13T00:56:52.774Z,3.17
2022-10-13T00:59:23.198Z,3.55
2022-10-13T01:01:52.703Z,3.30
2022-10-13T01:04:22.646Z,3.63
2022-10-13T01:06:49.897Z,3.40
2022-10-13T01:09:17.026Z,3.88
2022-10-13T01:11:47.342Z,3.40
2022-10-13T01:14:28.630Z,3.20
2022-10-13T01:17:07.600Z,3.00
2022-10-13T01:19:37.587Z,3.60
2022-10-13T01:22:13.581Z,3.25
2022-10-13T01:24:43.766Z,3.22
2022-10-13T01:27:27.315Z,3.17
2022-10-13T01:30:00.504Z,3.22
2022-10-13T01:32:47.828Z,3.40
2022-10-13T01:37:45.031Z,3.70
2022-10-13T01:40:23.671Z,4.10
2022-10-13T01:43:05.123Z,3.30
2022-10-13T01:45:36.635Z,3.05
2022-10-13T01:48:05.623Z,3.35
2022-10-13T01:50:33.608Z,3.67
2022-10-13T01:53:02.942Z,3.80
2022-10-13T01:55:31.686Z,3.28
2022-10-13T01:57:58.876Z,2.95
2022-10-13T02:00:26.549Z,3.50
2022-10-13T02:03:12.588Z,3.03
2022-10-13T02:05:51.725Z,3.40
2022-10-13T02:08:30.949Z,3.03
2022-10-13T02:11:01.727Z,2.83
2022-10-13T02:13:30.211Z,3.10
2022-10-13T02:15:59.366Z,3.25
2022-10-13T02:18:28.515Z,3.33
2022-10-13T02:20:56.007Z,4.13
2022-10-13T02:23:23.601Z,3.50
2022-10-13T02:25:51.276Z,2.97
2022-10-13T02:28:18.912Z,2.88
2022-10-13T02:30:46.975Z,3.20
2022-10-13T02:33:14.714Z,3.15
2022-10-13T02:35:43.624Z,2.63
2022-10-13T02:40:38.262Z,3.10
2022-10-13T02:43:05.766Z,3.08
2022-10-13T02:45:32.859Z,3.28
2022-10-13T02:47:59.995Z,3.00
2022-10-13T02:50:27.092Z,3.70
2022-10-13T02:52:54.175Z,2.85
2022-10-13T02:55:21.347Z,2.92
2022-10-13T02:57:48.593Z,2.80
2022-10-13T03:00:16.168Z,2.85
2022-10-13T03:02:43.289Z,3.47
2022-10-13T03:05:10.639Z,2.78
2022-10-13T03:07:38.135Z,3.50
2022-10-13T03:10:05.728Z,3.00
2022-10-13T03:12:33.072Z,2.88
2022-10-13T03:15:00.591Z,2.80
2022-10-13T03:17:27.739Z,3.50
2022-10-13T03:19:54.868Z,2.80
2022-10-13T03:22:22.364Z,3.03
2022-10-13T03:24:49.718Z,3.03
2022-10-13T03:27:16.858Z,2.83
2022-10-13T03:29:44.003Z,2.97
2022-10-13T03:32:11.197Z,3.42
2022-10-13T03:34:38.258Z,3.25
2022-10-13T03:37:05.376Z,3.05
2022-10-13T03:39:32.546Z,3.00
2022-10-13T03:41:59.652Z,3.08
2022-10-13T03:44:26.762Z,3.13
2022-10-13T03:46:53.846Z,3.08
2022-10-13T03:49:21.007Z,2.85
2022-10-13T03:51:48.046Z,4.18
2022-10-13T03:54:15.262Z,3.42
2022-10-13T03:56:42.909Z,2.90
2022-10-13T03:59:12.187Z,2.97
2022-10-13T04:01:39.866Z,3.03
2022-10-13T04:04:07.898Z,3.00
2022-10-13T04:06:34.957Z,2.97
2022-10-13T04:09:02.083Z,3.40
2022-10-13T04:11:29.485Z,2.83
2022-10-13T04:13:57.402Z,3.33
2022-10-13T04:16:26.081Z,2.95
2022-10-13T04:18:55.742Z,3.15
2022-10-13T04:21:23.402Z,2.90
2022-10-13T04:23:50.850Z,2.80
2022-10-13T04:26:22.609Z,3.08
2022-10-13T04:28:50.836Z,3.13
2022-10-13T04:31:18.621Z,3.15
2022-10-13T04:33:45.832Z,4.28
2022-10-13T04:36:13.988Z,2.85
2022-10-13T04:38:41.489Z,3.30
2022-10-13T04:41:09.379Z,3.47
2022-10-13T04:43:36.564Z,3.08
2022-10-13T04:46:04.712Z,3.10
2022-10-13T04:48:32.105Z,3.80
2022-10-13T04:51:03.650Z,3.33
2022-10-13T04:53:30.881Z,3.20
2022-10-13T04:56:00.948Z,3.70
2022-10-13T04:58:28.011Z,3.45
2022-10-13T05:00:55.264Z,3.30
2022-10-13T05:03:22.442Z,2.72
2022-10-13T05:05:49.742Z,3.05
2022-10-13T05:08:17.025Z,2.25
2022-10-13T05:10:44.195Z,2.38
2022-10-13T05:13:11.282Z,2.67
2022-10-13T05:15:39.740Z,2.83
2022-10-13T05:18:06.814Z,3.20
2022-10-13T05:20:33.990Z,2.60
2022-10-13T05:23:01.036Z,3.05
2022-10-13T05:25:31.543Z,2.60
2022-10-13T05:28:00.968Z,2.65
2022-10-13T05:30:28.070Z,2.25
2022-10-13T05:32:55.179Z,2.47
2022-10-13T05:35:22.301Z,2.42
2022-10-13T05:37:49.426Z,2.20
2022-10-13T05:40:16.551Z,2.47
2022-10-13T05:42:43.741Z,2.20
2022-10-13T05:45:11.514Z,2.10
2022-10-13T05:47:38.611Z,2.03
2022-10-13T05:50:05.920Z,2.35
2022-10-13T05:52:33.922Z,2.22
2022-10-13T05:55:04.199Z,1.77
2022-10-13T05:57:33.190Z,1.90
2022-10-13T06:02:30.780Z,1.92
2022-10-13T06:04:58.221Z,1.85
2022-10-13T06:07:25.491Z,2.78
2022-10-13T06:09:52.757Z,1.65
2022-10-13T06:12:20.321Z,1.95
2022-10-13T06:14:47.664Z,1.95
2022-10-13T06:17:14.782Z,1.42
2022-10-13T06:19:42.057Z,2.10
2022-10-13T06:22:09.759Z,1.92
2022-10-13T06:24:36.889Z,1.88
2022-10-13T06:27:04.106Z,1.75
2022-10-13T06:29:32.902Z,1.50
2022-10-13T06:31:59.996Z,1.85
2022-10-13T06:34:27.065Z,1.70
2022-10-13T06:36:54.127Z,1.77
2022-10-13T06:39:21.334Z,1.65
2022-10-13T06:41:48.450Z,1.35
2022-10-13T06:44:15.516Z,1.45
2022-10-13T06:46:42.900Z,1.20
2022-10-13T06:49:10.375Z,1.65
2022-10-13T06:51:37.605Z,1.67
2022-10-13T06:54:04.800Z,1.40
2022-10-13T06:56:31.880Z,1.33
2022-10-13T06:58:59.025Z,1.45
2022-10-13T07:01:26.207Z,1.98
2022-10-13T07:03:53.303Z,1.58
2022-10-13T07:06:20.861Z,1.60
2022-10-13T07:08:47.973Z,1.48
2022-10-13T07:11:16.582Z,1.50
2022-10-13T07:13:46.536Z,1.60
2022-10-13T07:16:14.899Z,1.60
2022-10-13T07:18:41.990Z,1.35
2022-10-13T07:21:09.091Z,1.70
2022-10-13T07:23:36.247Z,1.40
2022-10-13T07:26:07.429Z,1.30
2022-10-13T07:28:34.564Z,1.30
2022-10-13T07:31:01.813Z,1.77
2022-10-13T07:33:28.900Z,1.88
2022-10-13T07:35:59.284Z,1.80
2022-10-13T07:38:26.400Z,2.00
2022-10-13T07:40:53.491Z,1.52
2022-10-13T07:43:20.575Z,1.85
2022-10-13T07:45:47.790Z,2.40
2022-10-13T07:48:14.913Z,2.08
2022-10-13T07:50:42.025Z,2.08
2022-10-13T07:53:09.103Z,2.08
2022-10-13T07:55:37.071Z,2.28
2022-10-13T07:58:04.664Z,2.08
2022-10-13T08:00:31.889Z,1.90
2022-10-13T08:02:59.021Z,1.92
2022-10-13T08:05:26.127Z,1.98
2022-10-13T08:07:56.019Z,2.35
2022-10-13T08:10:25.579Z,2.58
2022-10-13T08:12:52.824Z,1.90
2022-10-13T08:15:19.998Z,2.47
2022-10-13T08:17:48.518Z,1.75
2022-10-13T08:20:15.638Z,2.42
2022-10-13T08:22:42.788Z,2.17
2022-10-13T08:25:10.250Z,2.30
2022-10-13T08:27:50.678Z,2.05
2022-10-13T08:30:18.662Z,2.30
2022-10-13T08:32:45.878Z,2.20
2022-10-13T08:35:13.083Z,2.28
2022-10-13T08:37:41.452Z,2.50
2022-10-13T08:40:12.339Z,2.47
2022-10-13T08:42:44.037Z,2.65
2022-10-13T08:45:39.654Z,2.17
2022-10-13T08:48:06.507Z,2.45
2022-10-13T08:50:38.515Z,2.40
2022-10-13T08:53:14.667Z,2.20
2022-10-13T08:55:58.867Z,2.30
2022-10-13T08:58:27.831Z,2.63
2022-10-13T09:03:26.596Z,2.33
2022-10-13T09:06:12.165Z,2.83
2022-10-13T09:08:44.201Z,2.38
2022-10-13T09:11:12.383Z,2.97
2022-10-13T09:13:40.344Z,2.70
2022-10-13T09:16:08.023Z,2.55
2022-10-13T09:18:35.811Z,2.38
2022-10-13T09:21:21.896Z,2.65
2022-10-13T09:23:50.305Z,2.63
2022-10-13T09:26:20.076Z,2.55
2022-10-13T09:28:47.284Z,2.78
2022-10-13T09:31:28.933Z,2.60
2022-10-13T09:34:00.486Z,2.67
2022-10-13T09:36:29.254Z,2.67
2022-10-13T09:39:12.374Z,3.22
2022-10-13T09:41:42.279Z,3.38
2022-10-13T09:44:29.653Z,2.53
2022-10-13T09:49:34.813Z,2.95
2022-10-13T09:52:03.210Z,2.80
2022-10-13T09:54:30.261Z,2.97
2022-10-13T09:57:00.299Z,2.95
2022-10-13T09:59:39.958Z,3.17
2022-10-13T10:02:33.917Z,2.65
2022-10-13T10:05:05.886Z,2.63
2022-10-13T10:07:33.623Z,2.67
2022-10-13T10:10:02.176Z,2.97
2022-10-13T10:12:31.498Z,2.92
2022-10-13T10:14:58.615Z,2.50
2022-10-13T10:17:25.714Z,2.90
2022-10-13T10:20:14.122Z,2.80
2022-10-13T10:22:48.660Z,2.58
2022-10-13T10:25:15.880Z,2.58
2022-10-13T10:27:45.049Z,2.97
2022-10-13T10:30:19.444Z,2.90
2022-10-13T10:32:59.981Z,2.75
2022-10-13T10:35:42.127Z,2.50
2022-10-13T10:38:12.016Z,2.75
2022-10-13T10:40:57.111Z,2.60
2022-10-13T10:43:24.207Z,2.65
2022-10-13T10:45:51.342Z,2.42
2022-10-13T10:48:20.367Z,2.65
2022-10-13T10:50:47.857Z,2.67
2022-10-13T10:53:24.308Z,2.85
2022-10-13T10:55:51.428Z,2.35
2022-10-13T10:58:18.559Z,2.50
2022-10-13T11:00:52.330Z,3.13
2022-10-13T11:03:22.188Z,3.17
2022-10-13T11:05:58.107Z,3.20
2022-10-13T11:08:29.428Z,2.95
2022-10-13T11:11:15.292Z,3.03
2022-10-13T11:14:02.510Z,3.25
2022-10-13T11:16:29.691Z,3.38
2022-10-13T11:18:59.403Z,3.17
2022-10-13T11:21:26.505Z,3.45
2022-10-13T11:23:56.372Z,3.30
2022-10-13T11:26:25.605Z,3.78
2022-10-13T11:28:52.745Z,3.40
2022-10-13T11:31:25.986Z,3.30
2022-10-13T11:34:02.678Z,3.50
2022-10-13T11:36:48.680Z,3.35
2022-10-13T11:39:28.239Z,4.10
2022-10-13T11:42:14.223Z,3.08
2022-10-13T11:44:44.342Z,3.25
2022-10-13T11:47:34.466Z,3.50
2022-10-13T11:50:04.402Z,2.80
2022-10-13T11:52:45.722Z,3.03
2022-10-13T11:55:14.649Z,3.28
2022-10-13T12:00:14.782Z,3.25
2022-10-13T12:02:49.312Z,3.55
2022-10-13T12:05:21.598Z,3.45
2022-10-13T12:07:50.567Z,3.58
2022-10-13T12:12:49.130Z,3.42
2022-10-13T12:15:35.265Z,3.35
2022-10-13T12:18:02.788Z,3.40
2022-10-13T12:20:31.495Z,3.88
2022-10-13T12:22:59.038Z,3.58
2022-10-13T12:25:31.048Z,3.35
2022-10-13T12:27:59.256Z,3.50
2022-10-13T12:30:28.096Z,3.85
2022-10-13T12:35:25.190Z,3.53
2022-10-13T12:37:52.923Z,3.60
2022-10-13T12:40:20.765Z,3.05
2022-10-13T12:42:48.724Z,3.55
2022-10-13T12:45:23.966Z,3.80
2022-10-13T12:47:52.552Z,3.38
2022-10-13T12:50:25.810Z,3.40
2022-10-13T12:52:54.030Z,3.30
2022-10-13T12:55:22.220Z,3.75
2022-10-13T12:57:52.751Z,3.10
2022-10-13T13:00:19.997Z,3.80
2022-10-13T13:02:54.476Z,3.55
2022-10-13T13:05:31.391Z,3.72
2022-10-13T13:07:58.782Z,2.85
2022-10-13T13:10:26.112Z,3.20
2022-10-13T13:12:54.720Z,3.58
2022-10-13T13:15:28.031Z,3.30
2022-10-13T13:17:59.347Z,2.78
2022-10-13T13:20:28.279Z,3.92
2022-10-13T13:22:55.789Z,3.40
2022-10-13T13:25:23.504Z,3.40
2022-10-13T13:27:51.066Z,3.53
2022-10-13T13:30:19.713Z,3.40
2022-10-13T13:32:47.060Z,3.22
2022-10-13T13:35:14.278Z,3.50
2022-10-13T13:37:44.368Z,3.35
2022-10-13T13:40:15.737Z,3.25
2022-10-13T13:42:42.896Z,3.42
2022-10-13T13:45:13.533Z,3.10
2022-10-13T13:47:40.660Z,3.45
2022-10-13T13:50:18.317Z,3.08
2022-10-13T13:52:45.524Z,3.33
2022-10-13T13:55:12.683Z,3.85
2022-10-13T13:57:39.819Z,3.45
2022-10-13T14:00:07.364Z,3.80
2022-10-13T14:02:34.511Z,3.33
2022-10-13T14:05:01.644Z,3.75
2022-10-13T14:07:28.780Z,4.03
2022-10-13T14:09:59.276Z,3.25
2022-10-13T14:12:30.538Z,3.90
2022-10-13T14:14:58.490Z,4.32
2022-10-13T14:17:26.479Z,3.97
2022-10-13T14:19:53.670Z,4.28
2022-10-13T14:22:21.400Z,4.35
2022-10-13T14:24:48.706Z,4.20
2022-10-13T14:27:15.933Z,4.13
2022-10-13T14:29:43.063Z,4.25
2022-10-13T14:32:10.350Z,4.30
2022-10-13T14:34:37.522Z,4.40
2022-10-13T14:37:04.604Z,4.40
2022-10-13T14:39:31.665Z,4.22
2022-10-13T14:41:58.788Z,4.82
2022-10-13T14:44:26.040Z,4.88
2022-10-13T14:46:53.142Z,4.63
2022-10-13T14:49:20.210Z,5.13
2022-10-13T14:51:47.335Z,5.85
2022-10-13T14:54:14.498Z,5.22
2022-10-13T14:56:41.610Z,5.47
2022-10-13T14:59:08.738Z,5.45
2022-10-13T15:01:35.951Z,5.45
2022-10-13T15:04:03.439Z,6.25
2022-10-13T15:06:30.613Z,5.25
2022-10-13T15:08:58.070Z,7.00
2022-10-13T15:11:25.650Z,6.82
2022-10-13T15:13:53.055Z,6.32
2022-10-13T15:16:21.917Z,6.57
2022-10-13T15:18:49.119Z,7.38
2022-10-13T15:21:16.725Z,6.57
2022-10-13T15:23:44.140Z,7.32
2022-10-13T15:26:11.978Z,6.78
2022-10-13T15:28:41.193Z,6.30
2022-10-13T15:31:08.504Z,6.10
2022-10-13T15:33:35.603Z,6.80
2022-10-13T15:36:03.500Z,6.63
2022-10-13T15:38:31.018Z,6.57
2022-10-13T15:41:01.462Z,6.43
2022-10-13T15:43:28.578Z,5.95
2022-10-13T15:46:21.426Z,6.30
2022-10-13T15:48:49.522Z,5.93
2022-10-13T15:51:18.314Z,5.95
2022-10-13T15:53:45.605Z,5.85
2022-10-13T15:56:12.715Z,6.20
2022-10-13T15:58:39.831Z,5.82
2022-10-13T16:01:11.242Z,6.07
2022-10-13T16:03:38.693Z,5.50
2022-10-13T16:06:07.176Z,5.97
2022-10-13T16:08:41.162Z,5.60
2022-10-13T16:11:12.293Z,5.75
2022-10-13T16:13:39.665Z,5.43
2022-10-13T16:16:07.000Z,5.78
2022-10-13T16:18:35.479Z,5.80
2022-10-13T16:21:08.724Z,4.80
2022-10-13T16:23:36.179Z,4.82
2022-10-13T16:26:03.851Z,5.05
2022-10-13T16:28:31.146Z,4.50
2022-10-13T16:31:04.248Z,4.55
2022-10-13T16:33:31.557Z,4.80
2022-10-13T16:36:09.004Z,4.75
2022-10-13T16:38:36.404Z,4.43
2022-10-13T16:41:04.879Z,3.80
2022-10-13T16:43:32.354Z,4.88
2022-10-13T16:46:00.579Z,4.57
2022-10-13T16:48:28.189Z,4.18
2022-10-13T16:50:55.380Z,4.35
2022-10-13T16:53:22.590Z,4.10
2022-10-13T16:55:49.829Z,3.63
2022-10-13T16:58:17.035Z,4.03
2022-10-13T17:00:44.218Z,4.18
2022-10-13T17:03:11.381Z,3.95
2022-10-13T17:05:40.420Z,3.40
2022-10-13T17:08:09.157Z,3.58
2022-10-13T17:10:36.274Z,3.83
2022-10-13T17:13:04.535Z,3.40
2022-10-13T17:15:31.643Z,3.30
2022-10-13T17:17:58.797Z,3.05
2022-10-13T17:20:25.871Z,3.40
2022-10-13T17:22:53.116Z,2.70
2022-10-13T17:25:20.290Z,3.17
2022-10-13T17:27:47.672Z,2.75
2022-10-13T17:30:14.802Z,2.78
2022-10-13T17:32:41.943Z,2.72
2022-10-13T17:35:14.291Z,2.78
2022-10-13T17:37:41.448Z,2.95
2022-10-13T17:40:08.877Z,2.40
2022-10-13T17:42:35.958Z,3.45
2022-10-13T17:45:03.096Z,2.83
2022-10-13T17:47:30.229Z,2.58
2022-10-13T17:49:57.361Z,2.25
2022-10-13T17:52:24.622Z,2.38
2022-10-13T17:54:51.786Z,2.30
2022-10-13T17:57:20.400Z,2.35
2022-10-13T17:59:47.763Z,2.60
2022-10-13T18:02:14.858Z,1.98
2022-10-13T18:04:42.123Z,2.03
2022-10-13T18:07:09.208Z,2.13
2022-10-13T18:09:36.301Z,2.05
2022-10-13T18:12:03.364Z,1.92
2022-10-13T18:14:30.484Z,1.80
2022-10-13T18:16:57.581Z,2.33
2022-10-13T18:19:24.820Z,2.00
2022-10-13T18:21:53.185Z,2.35
2022-10-13T18:24:20.608Z,1.98
2022-10-13T18:26:47.786Z,1.88
2022-10-13T18:29:14.924Z,2.38
2022-10-13T18:31:42.310Z,1.63
2022-10-13T18:34:12.256Z,1.95
2022-10-13T18:36:42.461Z,1.83
2022-10-13T18:39:12.269Z,1.80
2022-10-13T18:41:39.625Z,2.15
2022-10-13T18:44:07.381Z,2.35
2022-10-13T18:46:35.544Z,1.85
2022-10-13T18:49:03.255Z,1.85
2022-10-13T18:51:36.496Z,2.10
2022-10-13T18:54:04.910Z,1.98
2022-10-13T18:56:33.270Z,1.70
2022-10-13T18:59:01.648Z,1.90
2022-10-13T19:01:30.592Z,1.80
2022-10-13T19:06:26.929Z,2.03
2022-10-13T19:08:57.955Z,1.90
2022-10-13T19:11:25.485Z,2.13
2022-10-13T19:13:52.647Z,2.00
2022-10-13T19:16:21.126Z,2.03
2022-10-13T19:18:48.953Z,2.65
2022-10-13T19:21:16.212Z,2.35
2022-10-13T19:23:44.923Z,2.90
2022-10-13T19:26:15.086Z,2.40
2022-10-13T19:28:43.542Z,2.50
2022-10-13T19:31:23.210Z,2.47
2022-10-13T19:33:52.477Z,2.50
2022-10-13T19:36:31.091Z,2.58
2022-10-13T19:38:58.711Z,2.55
2022-10-13T19:41:27.462Z,2.40
2022-10-13T19:43:54.573Z,2.67
2022-10-13T19:46:22.845Z,2.65
2022-10-13T19:48:50.239Z,2.75
2022-10-13T19:51:17.357Z,2.72
2022-10-13T19:53:45.883Z,2.70
2022-10-13T19:56:39.227Z,2.78
2022-10-13T19:59:06.314Z,2.50
2022-10-13T20:01:39.769Z,2.90
2022-10-13T20:04:06.945Z,2.53
2022-10-13T20:06:35.579Z,2.60
2022-10-13T20:09:02.991Z,2.63
2022-10-13T20:11:30.131Z,2.42
2022-10-13T20:13:57.246Z,3.00
2022-10-13T20:16:25.768Z,2.72
2022-10-13T20:18:57.545Z,2.80
2022-10-13T20:21:25.317Z,2.92
2022-10-13T20:23:52.500Z,2.80
2022-10-13T20:26:20.276Z,2.70
2022-10-13T20:28:48.495Z,3.08
2022-10-13T20:31:17.251Z,2.88
2022-10-13T20:33:44.507Z,2.50
2022-10-13T20:36:12.815Z,2.45
2022-10-13T20:38:39.906Z,2.53
2022-10-13T20:41:15.202Z,2.90
2022-10-13T20:43:42.292Z,2.83
2022-10-13T20:46:09.780Z,3.03
2022-10-13T20:49:05.090Z,2.58
2022-10-13T20:51:25.556Z,2.53
2022-10-13T20:53:52.765Z,3.25
2022-10-13T20:56:21.638Z,2.90
2022-10-13T20:58:49.277Z,2.42
2022-10-13T21:01:17.074Z,2.60
2022-10-13T21:03:44.403Z,2.75
2022-10-13T21:06:12.933Z,2.88
2022-10-13T21:08:40.374Z,2.35
2022-10-13T21:11:11.940Z,3.40
2022-10-13T21:13:40.231Z,3.08
2022-10-13T21:16:08.989Z,2.80
2022-10-13T21:18:36.319Z,2.90
2022-10-13T21:21:08.405Z,2.67
2022-10-13T21:23:35.796Z,3.20
2022-10-13T21:26:03.773Z,3.42
2022-10-13T21:28:31.211Z,3.58
2022-10-13T21:31:05.237Z,4.38
2022-10-13T21:33:35.481Z,3.90
2022-10-13T21:36:05.989Z,3.97
2022-10-13T21:38:33.261Z,4.20
2022-10-13T21:41:00.364Z,3.60
2022-10-13T21:43:27.464Z,4.25
2022-10-13T21:45:54.519Z,4.00
2022-10-13T21:48:21.591Z,4.82
2022-10-13T21:50:48.646Z,4.78
2022-10-13T21:53:15.731Z,4.50
2022-10-13T21:55:45.102Z,4.95
2022-10-13T21:58:12.277Z,4.65
2022-10-13T22:00:39.400Z,4.40
2022-10-13T22:03:06.625Z,5.90
2022-10-13T22:05:35.262Z,4.00
2022-10-13T22:08:02.349Z,4.55
2022-10-13T22:10:29.656Z,4.38
2022-10-13T22:12:57.971Z,4.40
2022-10-13T22:15:25.051Z,4.90
2022-10-13T22:17:52.240Z,4.68
2022-10-13T22:20:19.377Z,4.88
2022-10-13T22:22:46.452Z,4.53
2022-10-13T22:25:13.529Z,4.50
2022-10-13T22:27:40.605Z,4.57
2022-10-13T22:30:08.116Z,4.68
2022-10-13T22:32:35.330Z,3.88
2022-10-13T22:35:03.011Z,4.38
2022-10-13T22:37:30.113Z,4.72
2022-10-13T22:39:57.304Z,5.78
2022-10-13T22:42:24.370Z,4.10
2022-10-13T22:44:51.505Z,4.22
2022-10-13T22:47:18.827Z,4.47
2022-10-13T22:49:46.318Z,4.55
2022-10-13T22:52:13.396Z,3.92
2022-10-13T22:54:40.483Z,4.25
2022-10-13T22:57:07.566Z,3.65
2022-10-13T22:59:35.174Z,3.90
2022-10-13T23:02:02.314Z,4.38
2022-10-13T23:04:29.415Z,4.40
2022-10-13T23:06:56.540Z,4.05
2022-10-13T23:09:23.697Z,4.28
2022-10-13T23:11:50.772Z,4.55
2022-10-13T23:14:17.873Z,4.18
2022-10-13T23:16:44.971Z,4.40
2022-10-13T23:19:12.079Z,3.70
2022-10-13T23:21:39.163Z,4.70
2022-10-13T23:24:07.006Z,3.75
2022-10-13T23:26:34.713Z,4.43
2022-10-13T23:29:01.899Z,4.20
2022-10-13T23:31:29.150Z,3.70
2022-10-13T23:33:56.429Z,4.95
2022-10-13T23:36:25.253Z,3.95
2022-10-13T23:38:56.042Z,4.18
2022-10-13T23:41:23.255Z,3.88
2022-10-13T23:43:50.428Z,4.47
2022-10-13T23:46:17.536Z,4.43
2022-10-13T23:48:44.682Z,4.88
2022-10-13T23:51:13.621Z,4.90
2022-10-13T23:56:08.828Z,5.68
2022-10-13T23:58:36.754Z,5.88
